HE20 weather

Ras Jimsah New Airport
Red Sea Governorate, Egypt

Public forecast

Using degrees Celsius for public forecast. Weather courtesy of forecast.io.

METAR (pilot weather report)

Closest report is El Tor Airport, 23.3 nm (43.2 km) NNE. Retrieved 2019/04/19 18:00 UTC (18 minutes ago):

HETR 191800Z 33010KT CAVOK 23/07 Q1016

TAF (pilot weather forecast)

Closest forecast is El Tor Airport, 23.3 nm (43.2 km) NNE. Retrieved 2019/04/19 18:00 UTC (18 minutes ago):

TAF HETR 191700Z 1918/2024 33010G22KT CAVOK